Time;durP1;ratioP1;P1;durP2;ratioP2;P2;SDS_P1;SDS_P2;PMS_P1;PMS_P2;Temp;Humidity;BMP_temperature;BMP_pressure;BME280_temperature;BME280_humidity;BME280_pressure;Samples;Min_cycle;Max_cycle;Signal;HPM_P1;HPM_P2
2022/07/22 00:00:29;;;;;;;;;;;;;;;22.47;58.76;100159.31;1088485;54;19966;-81
2022/07/22 00:01:33;;;;;;;;;;;;;;;22.46;59.01;100164.97;1088420;54;19943;-80
2022/07/22 00:02:34;;;;;;;;;;;;;;;22.46;58.73;100168.53;1088441;54;19942;-81
2022/07/22 00:03:38;;;;;;;;;;;;;;;22.41;59.27;100166.47;1088353;54;19943;-80
2022/07/22 00:04:39;;;;;;;;;;;;;;;22.41;59.06;100166.47;1088298;54;19934;-80
2022/07/22 00:05:43;;;;;;;;;;;;;;;22.42;59.05;100162.69;1088009;54;19943;-80
2022/07/22 00:06:44;;;;;;;;;;;;;;;22.42;59.05;100159.97;1085785;54;19946;-75
2022/07/22 00:07:48;;;;;;;;;;;;;;;22.43;58.73;100160.78;1085972;54;20551;-79
2022/07/22 00:08:49;;;;;;;;;;;;;;;22.39;59.28;100162.25;1086514;54;19953;-78
2022/07/22 00:09:53;;;;;;;;;;;;;;;22.38;59.39;100163.31;1086956;54;20456;-75
2022/07/22 00:10:54;;;;;;;;;;;;;;;22.38;59.09;100160.59;1087095;46;19940;-77
2022/07/22 00:11:57;;;;;;;;;;;;;;;22.37;59.19;100165.19;1085663;54;19950;-76
2022/07/22 00:12:58;;;;;;;;;;;;;;;22.31;60.07;100154.34;1085909;54;19951;-77
2022/07/22 00:14:05;;;;;;;;;;;;;;;22.25;60.06;100164.22;1086113;54;19970;-77
2022/07/22 00:15:07;;;;;;;;;;;;;;;22.25;59.78;100158.78;1086416;54;19939;-76
2022/07/22 00:16:11;;;;;;;;;;;;;;;22.26;59.98;100161.31;1085669;54;19946;-76
2022/07/22 00:17:12;;;;;;;;;;;;;;;22.25;60.11;100156.91;1086080;54;19946;-75
2022/07/22 00:18:16;;;;;;;;;;;;;;;22.25;60.07;100156.91;1086538;54;19958;-77
2022/07/22 00:19:17;;;;;;;;;;;;;;;22.22;60.44;100165.50;1086788;54;19957;-79
2022/07/22 00:20:21;;;;;;;;;;;;;;;22.20;60.08;100151.28;1086761;54;19985;-78
2022/07/22 00:21:22;;;;;;;;;;;;;;;22.16;60.66;100158.22;1086540;54;19958;-77
2022/07/22 00:22:26;;;;;;;;;;;;;;;22.16;60.33;100158.22;1086936;54;19946;-79
2022/07/22 00:23:27;;;;;;;;;;;;;;;22.15;60.30;100151.09;1086344;54;19947;-80
2022/07/22 00:24:31;;;;;;;;;;;;;;;22.15;60.43;100155.72;1088027;39;20473;-78
2022/07/22 00:25:33;;;;;;;;;;;;;;;22.09;61.00;100168.31;1087084;54;19950;-80
2022/07/22 00:26:36;;;;;;;;;;;;;;;22.10;60.71;100162.66;1087648;54;19997;-81
2022/07/22 00:27:37;;;;;;;;;;;;;;;22.07;61.01;100164.97;1093397;39;20416;-79
2022/07/22 00:28:41;;;;;;;;;;;;;;;22.05;60.92;100167.94;1087755;54;19934;-81
2022/07/22 00:29:45;;;;;;;;;;;;;;;22.02;61.23;100156.63;1087818;54;19930;-76
2022/07/22 00:30:49;;;;;;;;;;;;;;;22.02;61.13;100164.78;1087997;54;19942;-78
2022/07/22 00:31:50;;;;;;;;;;;;;;;22.00;61.28;100158.75;1088270;54;19942;-79
2022/07/22 00:32:54;;;;;;;;;;;;;;;22.00;61.25;100162.28;1088115;54;19957;-78
2022/07/22 00:33:55;;;;;;;;;;;;;;;21.91;61.62;100156.28;1111604;36;21421;-77
2022/07/22 00:35:01;;;;;;;;;;;;;;;21.92;61.76;100157.91;1092631;39;20501;-78
2022/07/22 00:36:07;;;;;;;;;;;;;;;21.95;61.43;100157.50;1088208;54;19965;-78
2022/07/22 00:37:12;;;;;;;;;;;;;;;21.98;61.11;100169.81;1087178;54;19954;-77
2022/07/22 00:38:13;;;;;;;;;;;;;;;21.95;61.82;100162.94;1086561;54;20002;-78
2022/07/22 00:39:17;;;;;;;;;;;;;;;21.90;61.87;100168.22;1086395;54;19954;-76
2022/07/22 00:40:18;;;;;;;;;;;;;;;21.93;61.31;100165.03;1086182;54;20038;-76
2022/07/22 00:41:21;;;;;;;;;;;;;;;21.89;61.59;100161.09;1085440;54;19954;-77
2022/07/22 00:42:23;;;;;;;;;;;;;;;21.84;61.59;100163.63;1085797;54;20542;-78
2022/07/22 00:43:27;;;;;;;;;;;;;;;21.78;61.60;100167.22;1086155;54;19973;-77
2022/07/22 00:44:28;;;;;;;;;;;;;;;21.69;62.34;100163.06;1086762;54;19946;-78
2022/07/22 00:45:34;;;;;;;;;;;;;;;21.63;62.23;100164.75;1086661;54;19947;-76
2022/07/22 00:46:36;;;;;;;;;;;;;;;21.64;62.22;100169.97;1086360;54;20933;-77
2022/07/22 00:47:40;;;;;;;;;;;;;;;21.60;62.22;100166.03;1086563;54;20026;-77
2022/07/22 00:48:41;;;;;;;;;;;;;;;21.60;61.86;100165.19;1086992;54;19947;-78
2022/07/22 00:49:45;;;;;;;;;;;;;;;21.64;62.29;100166.44;1086886;54;19947;-79
2022/07/22 00:50:46;;;;;;;;;;;;;;;21.59;61.94;100161.63;1087123;54;19961;-77
2022/07/22 00:51:50;;;;;;;;;;;;;;;21.56;61.77;100163.91;1086669;54;19954;-76
2022/07/22 00:52:51;;;;;;;;;;;;;;;21.52;62.05;100163.53;1086759;54;19957;-79
2022/07/22 00:53:56;;;;;;;;;;;;;;;21.45;61.88;100168.13;1087266;54;19977;-79
2022/07/22 00:54:58;;;;;;;;;;;;;;;21.45;61.68;100168.97;1087071;54;19969;-78
2022/07/22 00:56:03;;;;;;;;;;;;;;;21.43;61.66;100172.97;1086671;54;19950;-80
2022/07/22 00:57:04;;;;;;;;;;;;;;;21.39;62.10;100168.97;1087074;47;19974;-78
2022/07/22 00:58:08;;;;;;;;;;;;;;;21.36;61.84;100170.25;1086789;47;19942;-78
2022/07/22 00:59:11;;;;;;;;;;;;;;;21.35;61.75;100163.97;1086187;54;19946;-78
2022/07/22 01:00:17;;;;;;;;;;;;;;;21.32;62.02;100174.44;1086615;54;19975;-78
2022/07/22 01:01:21;;;;;;;;;;;;;;;21.39;61.74;100166.25;1087121;54;19974;-79
2022/07/22 01:02:24;;;;;;;;;;;;;;;21.40;61.57;100170.66;1086907;54;20019;-79
2022/07/22 01:03:26;;;;;;;;;;;;;;;21.39;61.90;100171.69;1087065;54;19949;-79
2022/07/22 01:04:29;;;;;;;;;;;;;;;21.42;61.49;100176.72;1086962;54;19958;-79
2022/07/22 01:05:30;;;;;;;;;;;;;;;21.40;61.42;100171.47;1086906;54;19947;-79
2022/07/22 01:06:35;;;;;;;;;;;;;;;21.38;61.67;100175.47;1086817;54;19950;-78
2022/07/22 01:07:36;;;;;;;;;;;;;;;21.37;61.38;100160.19;1086983;54;19946;-77
2022/07/22 01:08:40;;;;;;;;;;;;;;;21.40;61.42;100167.94;1087535;39;20333;-77
2022/07/22 01:09:42;;;;;;;;;;;;;;;21.46;61.18;100170.66;1087114;54;19946;-77
2022/07/22 01:10:46;;;;;;;;;;;;;;;21.46;61.08;100162.50;1087370;54;19934;-78
2022/07/22 01:11:50;;;;;;;;;;;;;;;21.47;60.82;100168.75;1086262;54;19939;-77
2022/07/22 01:12:51;;;;;;;;;;;;;;;21.48;60.98;100167.69;1086715;54;19954;-78
2022/07/22 01:13:55;;;;;;;;;;;;;;;21.51;60.86;100161.84;1086180;54;20006;-78
2022/07/22 01:14:56;;;;;;;;;;;;;;;21.56;60.71;100169.34;1085926;54;19973;-76
2022/07/22 01:16:00;;;;;;;;;;;;;;;21.56;60.69;100163.91;1085772;54;20436;-78
2022/07/22 01:17:04;;;;;;;;;;;;;;;21.59;60.74;100164.34;1085490;54;19946;-76
2022/07/22 01:18:08;;;;;;;;;;;;;;;21.61;61.17;100156.81;1086261;54;19951;-79
2022/07/22 01:19:09;;;;;;;;;;;;;;;21.57;61.22;100163.69;1087409;39;20357;-78
2022/07/22 01:20:16;;;;;;;;;;;;;;;21.57;61.21;100160.97;1086847;54;20031;-78
2022/07/22 01:21:17;;;;;;;;;;;;;;;21.58;61.12;100159.09;1086850;54;19954;-78
2022/07/22 01:22:21;;;;;;;;;;;;;;;21.59;61.16;100153.47;1086698;54;19950;-77
2022/07/22 01:23:22;;;;;;;;;;;;;;;21.57;61.97;100160.97;1086797;54;19942;-78
2022/07/22 01:24:26;;;;;;;;;;;;;;;21.54;61.50;100161.41;1087547;39;20355;-77
2022/07/22 01:25:27;;;;;;;;;;;;;;;21.58;61.81;100167.28;1086402;54;19973;-76
2022/07/22 01:26:33;;;;;;;;;;;;;;;21.55;61.76;100165.78;1087614;54;19942;-78
2022/07/22 01:27:34;;;;;;;;;;;;;;;21.55;61.85;100173.13;1088055;54;19994;-78
2022/07/22 01:28:38;;;;;;;;;;;;;;;21.55;61.84;100163.06;1088102;54;19943;-77
2022/07/22 01:29:42;;;;;;;;;;;;;;;21.51;61.99;100164.56;1088207;54;19942;-79
2022/07/22 01:30:43;;;;;;;;;;;;;;;21.53;61.74;100164.34;1086294;54;19954;-79
2022/07/22 01:31:46;;;;;;;;;;;;;;;21.50;62.38;100177.31;1087075;39;20324;-79
2022/07/22 01:32:48;;;;;;;;;;;;;;;21.50;62.23;100168.34;1086138;54;20453;-77
2022/07/22 01:33:51;;;;;;;;;;;;;;;21.43;62.82;100170.25;1086122;54;19973;-76
2022/07/22 01:34:52;;;;;;;;;;;;;;;21.39;62.85;100171.69;1085856;54;19954;-76
2022/07/22 01:35:59;;;;;;;;;;;;;;;21.37;62.65;100173.78;1085480;54;19958;-78
2022/07/22 01:37:00;;;;;;;;;;;;;;;21.33;62.98;100166.09;1085802;46;19955;-76
2022/07/22 01:38:04;;;;;;;;;;;;;;;21.29;63.49;100167.53;1085478;54;19950;-79
2022/07/22 01:39:05;;;;;;;;;;;;;;;21.29;63.24;100161.28;1086760;39;20631;-80
2022/07/22 01:40:09;;;;;;;;;;;;;;;21.25;63.29;100162.75;1085904;54;19961;-78
2022/07/22 01:41:10;;;;;;;;;;;;;;;21.25;63.39;100166.31;1088208;39;20314;-78
2022/07/22 01:42:14;;;;;;;;;;;;;;;21.26;63.27;100161.69;1086151;54;19947;-78
2022/07/22 01:43:17;;;;;;;;;;;;;;;21.27;63.30;100160.66;1085714;54;19946;-77
2022/07/22 01:44:21;;;;;;;;;;;;;;;21.20;63.34;100163.38;1086082;54;20073;-76
2022/07/22 01:45:22;;;;;;;;;;;;;;;21.25;63.31;100162.75;1086193;54;19974;-78
2022/07/22 01:46:27;;;;;;;;;;;;;;;21.25;62.87;100165.47;1085854;54;19945;-77
2022/07/22 01:47:28;;;;;;;;;;;;;;;21.24;63.25;100167.34;1086784;39;20314;-77
2022/07/22 01:48:32;;;;;;;;;;;;;;;21.26;63.19;100164.41;1085822;54;19966;-77
2022/07/22 01:49:34;;;;;;;;;;;;;;;21.25;63.04;100169.03;1086127;54;19976;-79
2022/07/22 01:50:38;;;;;;;;;;;;;;;21.26;62.90;100167.13;1086012;54;20019;-79
2022/07/22 01:51:42;;;;;;;;;;;;;;;21.30;62.70;100169.22;1085419;54;19947;-77
2022/07/22 01:52:46;;;;;;;;;;;;;;;21.27;62.89;100172.34;1085431;54;19970;-77
2022/07/22 01:53:47;;;;;;;;;;;;;;;21.27;62.80;100166.91;1085495;54;19954;-77
2022/07/22 01:54:50;;;;;;;;;;;;;;;21.30;62.68;100173.84;1085782;54;19951;-78
2022/07/22 01:55:52;;;;;;;;;;;;;;;21.32;62.71;100169.84;1085736;54;19946;-78
2022/07/22 01:56:56;;;;;;;;;;;;;;;21.27;63.19;100166.91;1084816;54;19950;-77
2022/07/22 01:57:57;;;;;;;;;;;;;;;21.25;62.92;100173.63;1085781;54;19954;-81
2022/07/22 01:59:01;;;;;;;;;;;;;;;21.22;63.19;100169.44;1086089;39;20349;-77
2022/07/22 02:00:03;;;;;;;;;;;;;;;21.25;62.71;100165.47;1085789;54;19954;-77
2022/07/22 02:01:07;;;;;;;;;;;;;;;21.25;62.97;100163.59;1085735;54;19951;-78
2022/07/22 02:02:08;;;;;;;;;;;;;;;21.25;62.93;100160.03;1086256;54;19950;-78
2022/07/22 02:03:12;;;;;;;;;;;;;;;21.25;62.67;100154.59;1086036;54;19947;-77
2022/07/22 02:04:13;;;;;;;;;;;;;;;21.16;63.05;100159.44;1086178;39;19987;-78
2022/07/22 02:05:17;;;;;;;;;;;;;;;21.07;63.43;100163.38;1086004;54;19957;-78
2022/07/22 02:06:18;;;;;;;;;;;;;;;21.05;63.33;100163.63;1086321;54;19947;-80
2022/07/22 02:07:25;;;;;;;;;;;;;;;20.98;63.46;100162.78;1086393;54;19994;-77
2022/07/22 02:08:26;;;;;;;;;;;;;;;20.96;63.74;100163.00;1085987;54;19951;-77
2022/07/22 02:09:30;;;;;;;;;;;;;;;20.86;63.86;100163.41;1085659;54;20433;-77
2022/07/22 02:10:31;;;;;;;;;;;;;;;20.90;63.81;100166.56;1085310;54;19954;-78
2022/07/22 02:11:35;;;;;;;;;;;;;;;20.83;63.79;100171.16;1085462;54;20453;-78
2022/07/22 02:12:36;;;;;;;;;;;;;;;20.83;63.80;100163.84;1087729;54;19949;-79
2022/07/22 02:13:40;;;;;;;;;;;;;;;20.80;64.05;100166.13;1088014;54;20453;-80
2022/07/22 02:14:41;;;;;;;;;;;;;;;20.79;64.00;100172.59;1088151;54;19942;-78
2022/07/22 02:15:45;;;;;;;;;;;;;;;20.77;64.29;100166.56;1086833;54;20046;-78
2022/07/22 02:16:46;;;;;;;;;;;;;;;20.78;64.21;100168.25;1086767;54;19931;-78
2022/07/22 02:17:49;;;;;;;;;;;;;;;20.76;64.27;100173.06;1087460;54;19957;-80
2022/07/22 02:18:51;;;;;;;;;;;;;;;20.71;64.38;100166.31;1086737;54;19966;-79
2022/07/22 02:19:54;;;;;;;;;;;;;;;20.72;64.22;100173.44;1087085;54;20437;-80
2022/07/22 02:20:55;;;;;;;;;;;;;;;20.68;64.59;100166.75;1087864;54;19943;-81
2022/07/22 02:21:59;;;;;;;;;;;;;;;20.61;64.76;100165.91;1087755;54;19946;-82
2022/07/22 02:23:03;;;;;;;;;;;;;;;20.62;64.64;100164.84;1088081;54;19951;-79
2022/07/22 02:24:07;;;;;;;;;;;;;;;20.61;64.76;100156.91;1088340;54;19950;-80
2022/07/22 02:25:08;;;;;;;;;;;;;;;20.61;64.55;100165.06;1089822;46;20491;-81
2022/07/22 02:26:12;;;;;;;;;;;;;;;20.61;64.77;100168.59;1088307;54;19950;-84
2022/07/22 02:27:13;;;;;;;;;;;;;;;20.52;65.05;100161.72;1088089;54;19951;-81
2022/07/22 02:28:17;;;;;;;;;;;;;;;20.58;64.72;100160.91;1087941;54;19942;-81
2022/07/22 02:29:19;;;;;;;;;;;;;;;20.50;64.87;100164.66;1087646;39;20340;-77
2022/07/22 02:30:23;;;;;;;;;;;;;;;20.49;65.06;100157.53;1087983;54;19942;-81
2022/07/22 02:31:24;;;;;;;;;;;;;;;20.45;65.18;100158.16;1088380;54;19942;-80
2022/07/22 02:32:28;;;;;;;;;;;;;;;20.48;64.78;100160.47;1088327;54;19943;-81
2022/07/22 02:33:32;;;;;;;;;;;;;;;20.44;64.99;100164.63;1088465;54;19942;-79
2022/07/22 02:34:33;;;;;;;;;;;;;;;20.50;64.65;100166.53;1088523;54;19942;-81
2022/07/22 02:35:37;;;;;;;;;;;;;;;20.50;64.93;100161.09;1088568;54;19994;-82
2022/07/22 02:36:38;;;;;;;;;;;;;;;20.50;65.19;100163.81;1088517;54;20495;-82
2022/07/22 02:37:42;;;;;;;;;;;;;;;20.54;64.56;100157.78;1088695;54;20023;-82
2022/07/22 02:38:45;;;;;;;;;;;;;;;20.56;64.64;100157.53;1088711;54;19949;-82
2022/07/22 02:39:49;;;;;;;;;;;;;;;20.61;64.45;100163.19;1093082;46;19938;-80
2022/07/22 02:40:50;;;;;;;;;;;;;;;20.66;64.11;100159.84;1088732;54;19950;-82
2022/07/22 02:41:54;;;;;;;;;;;;;;;20.71;63.86;100160.88;1088710;54;19950;-82
2022/07/22 02:42:55;;;;;;;;;;;;;;;20.75;63.68;100157.78;1088669;54;19946;-80
2022/07/22 02:43:59;;;;;;;;;;;;;;;20.66;64.33;100154.41;1088661;54;19973;-81
2022/07/22 02:45:00;;;;;;;;;;;;;;;20.51;64.62;100160.03;1088574;54;19931;-82
2022/07/22 02:46:05;;;;;;;;;;;;;;;20.46;64.72;100157.94;1088504;54;19978;-83
2022/07/22 02:47:06;;;;;;;;;;;;;;;20.46;65.05;100157.94;1088433;54;19950;-82
2022/07/22 02:48:10;;;;;;;;;;;;;;;20.40;65.18;100156.88;1097349;39;20601;-81
2022/07/22 02:49:11;;;;;;;;;;;;;;;20.35;65.32;100159.41;1088676;46;19934;-83
2022/07/22 02:50:14;;;;;;;;;;;;;;;20.42;65.09;100162.13;1088572;54;19950;-81
2022/07/22 02:51:16;;;;;;;;;;;;;;;20.47;64.82;100162.34;1088564;54;19950;-82
2022/07/22 02:52:19;;;;;;;;;;;;;;;20.52;64.42;100156.28;1088547;54;19950;-81
2022/07/22 02:54:29;;;;;;;;;;;;;;;20.59;64.19;100157.16;1088110;54;19947;-80
2022/07/22 02:55:30;;;;;;;;;;;;;;;20.57;64.64;100153.78;1089619;39;20429;-79
2022/07/22 02:56:34;;;;;;;;;;;;;;;20.58;64.46;100152.75;1089714;46;19943;-81
2022/07/22 02:57:36;;;;;;;;;;;;;;;20.62;64.26;100159.41;1087931;54;19951;-79
2022/07/22 02:58:39;;;;;;;;;;;;;;;20.62;64.30;100154.00;1088012;54;19950;-79
2022/07/22 02:59:41;;;;;;;;;;;;;;;20.62;64.50;100164.84;1088489;54;19926;-81
2022/07/22 03:00:44;;;;;;;;;;;;;;;20.60;64.60;100168.81;1088234;54;19957;-80
2022/07/22 03:01:45;;;;;;;;;;;;;;;20.61;64.12;100167.78;1088526;54;19943;-82
2022/07/22 03:02:49;;;;;;;;;;;;;;;20.58;64.84;100166.31;1088407;54;19933;-81
2022/07/22 03:03:50;;;;;;;;;;;;;;;20.54;64.87;100167.78;1088295;54;19949;-82
2022/07/22 03:04:54;;;;;;;;;;;;;;;20.51;65.08;100162.75;1088329;54;19942;-82
2022/07/22 03:05:55;;;;;;;;;;;;;;;20.49;65.38;100167.56;1088876;46;19946;-81
2022/07/22 03:06:59;;;;;;;;;;;;;;;20.46;65.34;100168.81;1088175;54;19943;-82
2022/07/22 03:08:00;;;;;;;;;;;;;;;20.45;65.34;100169.84;1089133;46;19973;-80
2022/07/22 03:09:05;;;;;;;;;;;;;;;20.45;65.60;100164.41;1088965;46;19934;-79
2022/07/22 03:10:09;;;;;;;;;;;;;;;20.42;65.36;100168.38;1088177;54;20311;-78
2022/07/22 03:11:13;;;;;;;;;;;;;;;20.33;66.42;100166.91;1088876;46;19961;-78
2022/07/22 03:12:14;;;;;;;;;;;;;;;20.34;66.00;100170.47;1090005;46;19938;-79
2022/07/22 03:13:17;;;;;;;;;;;;;;;20.32;66.54;100164.41;1088310;54;19947;-78
2022/07/22 03:14:19;;;;;;;;;;;;;;;20.32;66.34;100165.22;1088399;54;19934;-82
2022/07/22 03:15:22;;;;;;;;;;;;;;;20.33;66.30;100166.09;1089891;46;20086;-78
2022/07/22 03:16:23;;;;;;;;;;;;;;;20.33;66.17;100166.09;1088495;54;19943;-77
2022/07/22 03:17:27;;;;;;;;;;;;;;;20.26;66.40;100166.88;1088369;54;19938;-79
2022/07/22 03:18:28;;;;;;;;;;;;;;;20.30;66.11;100166.50;1088333;54;19981;-81
2022/07/22 03:19:32;;;;;;;;;;;;;;;20.26;66.67;100166.88;1088472;54;19927;-79
2022/07/22 03:20:33;;;;;;;;;;;;;;;20.25;66.51;100167.97;1089904;46;19926;-81
2022/07/22 03:21:37;;;;;;;;;;;;;;;20.28;66.12;100161.28;1088542;54;19945;-80
2022/07/22 03:22:38;;;;;;;;;;;;;;;20.24;66.76;100168.16;1088524;54;19938;-80
2022/07/22 03:23:42;;;;;;;;;;;;;;;20.19;66.88;100167.94;1088489;54;20003;-79
2022/07/22 03:24:43;;;;;;;;;;;;;;;20.20;66.72;100162.28;1088595;54;19949;-78
2022/07/22 03:25:49;;;;;;;;;;;;;;;20.19;67.05;100174.19;1092760;46;20002;-79
2022/07/22 03:26:50;;;;;;;;;;;;;;;20.12;67.62;100167.91;1088561;54;20664;-78
2022/07/22 03:27:54;;;;;;;;;;;;;;;20.06;68.05;100166.03;1089558;46;19934;-80
2022/07/22 03:28:55;;;;;;;;;;;;;;;20.01;68.17;100163.94;1090263;46;20590;-80
2022/07/22 03:29:59;;;;;;;;;;;;;;;20.00;68.08;100173.09;1088556;54;19938;-81
2022/07/22 03:31:03;;;;;;;;;;;;;;;20.02;67.51;100164.75;1088441;54;19950;-80
2022/07/22 03:32:04;;;;;;;;;;;;;;;20.01;68.06;100166.66;1088469;54;19935;-80
2022/07/22 03:33:08;;;;;;;;;;;;;;;20.01;67.53;100172.06;1088426;54;20002;-79
2022/07/22 03:34:10;;;;;;;;;;;;;;;20.01;67.85;100177.50;1088184;54;19946;-79
2022/07/22 03:35:14;;;;;;;;;;;;;;;19.96;68.49;100177.25;1088512;39;20865;-80
2022/07/22 03:36:17;;;;;;;;;;;;;;;19.93;68.53;100183.09;1087964;54;19942;-79
2022/07/22 03:37:19;;;;;;;;;;;;;;;19.94;68.66;100173.91;1088445;54;19942;-80
2022/07/22 03:38:22;;;;;;;;;;;;;;;19.95;68.21;100175.56;1088380;54;19939;-79
2022/07/22 03:39:23;;;;;;;;;;;;;;;19.92;68.88;100173.28;1088243;54;19965;-78
2022/07/22 03:40:27;;;;;;;;;;;;;;;19.84;69.28;100178.88;1088038;54;19951;-81
2022/07/22 03:41:31;;;;;;;;;;;;;;;19.81;68.89;100169.22;1088030;54;19926;-79
2022/07/22 03:42:35;;;;;;;;;;;;;;;19.82;69.07;100176.34;1088872;46;19938;-81
2022/07/22 03:43:36;;;;;;;;;;;;;;;19.84;68.95;100173.44;1088261;54;19942;-80
2022/07/22 03:44:39;;;;;;;;;;;;;;;19.75;69.44;100179.00;1088054;54;20057;-83
2022/07/22 03:45:41;;;;;;;;;;;;;;;19.77;69.16;100174.22;1087958;54;19942;-80
2022/07/22 03:46:44;;;;;;;;;;;;;;;19.74;69.40;100173.81;1087485;54;19938;-79
2022/07/22 03:47:45;;;;;;;;;;;;;;;19.73;69.72;100167.56;1087124;54;19954;-79
2022/07/22 03:48:49;;;;;;;;;;;;;;;19.72;69.68;100174.00;1088070;54;19939;-79
2022/07/22 03:50:01;;;;;;;;;;;;;;;19.73;69.63;100170.28;1088041;54;19923;-79
2022/07/22 03:51:05;;;;;;;;;;;;;;;19.68;69.34;100175.44;1088418;54;19945;-77
2022/07/22 03:52:06;;;;;;;;;;;;;;;19.71;69.25;100176.91;1088128;54;19942;-78
2022/07/22 03:53:10;;;;;;;;;;;;;;;19.65;69.67;100167.69;1087902;54;19943;-77
2022/07/22 03:54:11;;;;;;;;;;;;;;;19.64;69.49;100166.06;1087214;54;20697;-76
2022/07/22 03:55:15;;;;;;;;;;;;;;;19.62;69.55;100171.66;1087971;54;19954;-78
2022/07/22 03:56:16;;;;;;;;;;;;;;;19.61;69.74;100174.59;1088287;54;20696;-77
2022/07/22 03:57:23;;;;;;;;;;;;;;;19.61;69.78;100174.59;1088438;54;19943;-77
2022/07/22 03:58:24;;;;;;;;;;;;;;;19.55;70.25;100172.69;1088315;54;19950;-77
2022/07/22 03:59:28;;;;;;;;;;;;;;;19.55;70.26;100170.81;1088322;54;20642;-76
2022/07/22 04:00:29;;;;;;;;;;;;;;;19.58;69.98;100177.69;1088492;46;19926;-76
2022/07/22 04:01:33;;;;;;;;;;;;;;;19.57;70.24;100173.31;1088370;54;19935;-75
2022/07/22 04:02:34;;;;;;;;;;;;;;;19.61;69.41;100169.16;1088363;54;19953;-76
2022/07/22 04:03:38;;;;;;;;;;;;;;;19.61;69.63;100175.41;1088320;54;19948;-77
2022/07/22 04:04:39;;;;;;;;;;;;;;;19.64;69.66;100179.63;1088412;54;19950;-76
2022/07/22 04:05:42;;;;;;;;;;;;;;;19.61;69.79;100180.84;1088386;54;19973;-76
2022/07/22 04:06:45;;;;;;;;;;;;;;;19.63;69.57;100167.09;1088419;54;19943;-77
2022/07/22 04:07:48;;;;;;;;;;;;;;;19.52;70.24;100175.78;1088363;54;19943;-76
2022/07/22 04:08:49;;;;;;;;;;;;;;;19.49;70.31;100172.44;1088307;54;20026;-76
2022/07/22 04:10:04;;;;;;;;;;;;;;;19.49;70.00;100177.84;1088178;54;20594;-75
2022/07/22 04:11:05;;;;;;;;;;;;;;;19.46;70.41;100182.84;1087918;54;20006;-77
2022/07/22 04:12:09;;;;;;;;;;;;;;;19.44;70.42;100180.34;1087986;54;19994;-76
2022/07/22 04:13:13;;;;;;;;;;;;;;;19.46;70.31;100172.81;1088300;54;19962;-77
2022/07/22 04:14:17;;;;;;;;;;;;;;;19.45;70.24;100176.59;1088349;54;19966;-77
2022/07/22 04:15:18;;;;;;;;;;;;;;;19.42;70.50;100178.84;1088387;54;19942;-76
2022/07/22 04:16:23;;;;;;;;;;;;;;;19.41;70.64;100172.59;1088281;54;19999;-77
2022/07/22 04:17:24;;;;;;;;;;;;;;;19.42;70.24;100171.56;1087916;54;19982;-78
2022/07/22 04:18:28;;;;;;;;;;;;;;;19.43;70.21;100170.53;1090230;39;20444;-77
2022/07/22 04:19:29;;;;;;;;;;;;;;;19.46;70.23;100180.13;1088405;54;19949;-76
2022/07/22 04:20:32;;;;;;;;;;;;;;;19.45;70.63;100176.59;1090003;46;19950;-77
2022/07/22 04:21:34;;;;;;;;;;;;;;;19.50;69.90;100170.56;1088347;54;19943;-78
2022/07/22 04:22:37;;;;;;;;;;;;;;;19.52;69.97;100170.38;1088395;54;20828;-77
2022/07/22 04:23:39;;;;;;;;;;;;;;;19.49;70.07;100172.44;1088250;54;19982;-77
2022/07/22 04:24:43;;;;;;;;;;;;;;;19.51;69.81;100174.13;1088395;54;19946;-76
2022/07/22 04:25:45;;;;;;;;;;;;;;;19.48;70.34;100170.75;1088379;54;19942;-78
2022/07/22 04:26:49;;;;;;;;;;;;;;;19.45;70.38;100165.75;1088359;54;19943;-76
2022/07/22 04:27:52;;;;;;;;;;;;;;;19.44;70.41;100177.63;1087889;54;19942;-76
2022/07/22 04:28:58;;;;;;;;;;;;;;;19.50;69.89;100173.28;1087830;54;19951;-77
2022/07/22 04:29:59;;;;;;;;;;;;;;;19.51;69.94;100179.53;1088003;54;19942;-77
2022/07/22 04:31:03;;;;;;;;;;;;;;;19.55;70.02;100172.69;1088269;54;19942;-76
2022/07/22 04:32:05;;;;;;;;;;;;;;;19.54;70.03;100171.84;1088305;54;19946;-78
2022/07/22 04:33:09;;;;;;;;;;;;;;;19.53;70.21;100172.03;1088303;54;19942;-77
2022/07/22 04:34:10;;;;;;;;;;;;;;;19.54;69.72;100169.13;1088272;54;19935;-76
2022/07/22 04:35:13;;;;;;;;;;;;;;;19.54;69.88;100173.72;1088363;54;20585;-76
2022/07/22 04:36:17;;;;;;;;;;;;;;;19.56;69.50;100177.91;1088357;54;19950;-76
2022/07/22 04:37:18;;;;;;;;;;;;;;;19.58;69.52;100172.25;1088404;54;19945;-77
2022/07/22 04:38:22;;;;;;;;;;;;;;;19.59;69.90;100173.94;1090265;39;20475;-77
2022/07/22 04:39:23;;;;;;;;;;;;;;;19.62;69.49;100179.78;1088338;54;19949;-77
2022/07/22 04:40:27;;;;;;;;;;;;;;;19.59;70.17;100176.66;1088196;54;19942;-76
2022/07/22 04:41:28;;;;;;;;;;;;;;;19.61;69.73;100177.28;1088256;54;19954;-77
2022/07/22 04:42:32;;;;;;;;;;;;;;;19.68;69.19;100178.16;1088343;54;19927;-78
2022/07/22 04:43:33;;;;;;;;;;;;;;;19.61;69.35;100180.00;1088247;54;19927;-76
2022/07/22 04:44:40;;;;;;;;;;;;;;;19.56;69.35;100177.91;1088541;39;20486;-78
2022/07/22 04:45:41;;;;;;;;;;;;;;;19.40;69.86;100173.63;1087523;54;20044;-78
2022/07/22 04:46:44;;;;;;;;;;;;;;;19.40;69.78;100175.53;1087498;54;19938;-77
2022/07/22 04:47:46;;;;;;;;;;;;;;;19.39;70.13;100173.84;1087788;54;19927;-77
2022/07/22 04:48:49;;;;;;;;;;;;;;;19.37;70.26;100179.44;1088293;54;19947;-77
2022/07/22 04:49:51;;;;;;;;;;;;;;;19.37;70.01;100178.63;1088262;54;19943;-78
2022/07/22 04:50:54;;;;;;;;;;;;;;;19.36;70.14;100182.38;1088328;54;19966;-77
2022/07/22 04:51:55;;;;;;;;;;;;;;;19.32;69.97;100181.94;1089738;46;19927;-77
2022/07/22 04:52:59;;;;;;;;;;;;;;;19.28;70.20;100177.94;1088338;54;20495;-80
2022/07/22 04:54:00;;;;;;;;;;;;;;;19.25;70.02;100181.06;1088207;54;19950;-77
2022/07/22 04:55:04;;;;;;;;;;;;;;;19.25;70.51;100178.34;1087774;54;19943;-76
2022/07/22 04:56:06;;;;;;;;;;;;;;;19.30;70.24;100171.31;1091134;46;19946;-77
2022/07/22 04:57:09;;;;;;;;;;;;;;;19.35;69.76;100172.56;1087820;54;21090;-77
2022/07/22 04:58:10;;;;;;;;;;;;;;;19.35;70.16;100159.00;1088192;54;20039;-76
2022/07/22 04:59:14;;;;;;;;;;;;;;;19.39;69.62;100163.81;1088242;54;19926;-76
2022/07/22 05:00:18;;;;;;;;;;;;;;;19.44;69.41;100169.50;1088293;54;19958;-78
2022/07/22 05:01:22;;;;;;;;;;;;;;;19.47;69.27;100163.66;1088281;54;20555;-78
2022/07/22 05:02:23;;;;;;;;;;;;;;;19.41;69.37;100159.06;1088297;54;19967;-76
2022/07/22 05:03:27;;;;;;;;;;;;;;;19.39;69.77;100163.81;1090796;39;20218;-78
2022/07/22 05:04:29;;;;;;;;;;;;;;;19.38;69.51;100164.03;1087949;54;20006;-77
2022/07/22 05:05:33;;;;;;;;;;;;;;;19.35;69.96;100159.88;1088124;54;19979;-78
2022/07/22 05:06:34;;;;;;;;;;;;;;;19.31;69.70;100156.72;1088376;54;19950;-78
2022/07/22 05:07:37;;;;;;;;;;;;;;;19.32;69.88;100168.38;1088380;54;19958;-78
2022/07/22 05:08:39;;;;;;;;;;;;;;;19.32;69.71;100163.78;1088299;54;19942;-78
2022/07/22 05:09:42;;;;;;;;;;;;;;;19.38;69.57;100164.03;1090843;46;19949;-77
2022/07/22 05:10:43;;;;;;;;;;;;;;;19.40;69.65;100161.97;1091955;46;19942;-77
2022/07/22 05:11:47;;;;;;;;;;;;;;;19.43;69.44;100167.81;1088340;54;19999;-77
2022/07/22 05:12:48;;;;;;;;;;;;;;;19.40;69.59;100168.22;1088369;54;19934;-77
2022/07/22 05:13:52;;;;;;;;;;;;;;;19.48;69.43;100159.91;1088264;54;20713;-78
2022/07/22 05:14:53;;;;;;;;;;;;;;;19.60;68.72;100164.78;1088355;54;20296;-77
2022/07/22 05:15:59;;;;;;;;;;;;;;;19.71;68.38;100164.19;1088360;54;19998;-77
2022/07/22 05:17:03;;;;;;;;;;;;;;;19.78;68.17;100173.19;1088318;54;19934;-77
2022/07/22 05:18:04;;;;;;;;;;;;;;;19.82;67.90;100165.50;1088301;54;19966;-78
2022/07/22 05:19:08;;;;;;;;;;;;;;;19.80;68.30;100160.28;1088246;54;19942;-77
2022/07/22 05:20:13;;;;;;;;;;;;;;;19.72;68.19;100162.31;1088246;54;19949;-79
2022/07/22 05:21:14;;;;;;;;;;;;;;;19.73;68.31;100161.28;1088475;46;19962;-78
2022/07/22 05:22:17;;;;;;;;;;;;;;;19.68;68.53;100164.59;1087771;54;19950;-78
2022/07/22 05:23:18;;;;;;;;;;;;;;;19.71;68.36;100166.91;1087891;54;19950;-78